sensor_id;sensor_type;location;lat;lon;timestamp;P1;durP1;ratioP1;P2;durP2;ratioP2
21352;SDS011;10834;52.268;6.770;2023-05-28T00:00:13;10.63;;;5.33;;
21352;SDS011;10834;52.268;6.770;2023-05-28T00:02:59;10.50;;;6.37;;
21352;SDS011;10834;52.268;6.770;2023-05-28T00:05:45;9.03;;;5.53;;
21352;SDS011;10834;52.268;6.770;2023-05-28T00:08:31;10.93;;;5.90;;
21352;SDS011;10834;52.268;6.770;2023-05-28T00:11:17;12.33;;;6.40;;
21352;SDS011;10834;52.268;6.770;2023-05-28T00:14:03;11.70;;;6.07;;
21352;SDS011;10834;52.268;6.770;2023-05-28T00:16:49;12.27;;;6.80;;
21352;SDS011;10834;52.268;6.770;2023-05-28T00:19:36;13.67;;;7.13;;
21352;SDS011;10834;52.268;6.770;2023-05-28T00:22:22;11.73;;;6.50;;
21352;SDS011;10834;52.268;6.770;2023-05-28T00:25:08;13.07;;;6.70;;
21352;SDS011;10834;52.268;6.770;2023-05-28T00:27:56;13.33;;;6.90;;
21352;SDS011;10834;52.268;6.770;2023-05-28T00:30:42;13.20;;;7.37;;
21352;SDS011;10834;52.268;6.770;2023-05-28T00:33:28;16.73;;;7.10;;
21352;SDS011;10834;52.268;6.770;2023-05-28T00:36:14;9.03;;;6.23;;
21352;SDS011;10834;52.268;6.770;2023-05-28T00:39:01;15.80;;;7.00;;
21352;SDS011;10834;52.268;6.770;2023-05-28T00:41:58;10.93;;;7.03;;
21352;SDS011;10834;52.268;6.770;2023-05-28T00:44:48;14.47;;;7.10;;
21352;SDS011;10834;52.268;6.770;2023-05-28T00:47:35;12.03;;;7.03;;
21352;SDS011;10834;52.268;6.770;2023-05-28T00:50:21;16.03;;;6.93;;
21352;SDS011;10834;52.268;6.770;2023-05-28T00:53:07;13.80;;;7.20;;
21352;SDS011;10834;52.268;6.770;2023-05-28T00:55:54;18.97;;;7.93;;
21352;SDS011;10834;52.268;6.770;2023-05-28T00:58:42;16.30;;;7.90;;
21352;SDS011;10834;52.268;6.770;2023-05-28T01:01:29;13.90;;;7.70;;
21352;SDS011;10834;52.268;6.770;2023-05-28T01:04:15;13.80;;;7.57;;
21352;SDS011;10834;52.268;6.770;2023-05-28T01:07:01;17.80;;;7.47;;
21352;SDS011;10834;52.268;6.770;2023-05-28T01:09:48;16.47;;;7.77;;
21352;SDS011;10834;52.268;6.770;2023-05-28T01:12:34;19.07;;;7.63;;
21352;SDS011;10834;52.268;6.770;2023-05-28T01:15:22;14.03;;;8.50;;
21352;SDS011;10834;52.268;6.770;2023-05-28T01:18:09;23.83;;;8.30;;
21352;SDS011;10834;52.268;6.770;2023-05-28T01:20:55;16.13;;;7.80;;
21352;SDS011;10834;52.268;6.770;2023-05-28T01:23:42;19.20;;;8.13;;
21352;SDS011;10834;52.268;6.770;2023-05-28T01:26:29;13.63;;;7.07;;
21352;SDS011;10834;52.268;6.770;2023-05-28T01:29:16;18.50;;;8.43;;
21352;SDS011;10834;52.268;6.770;2023-05-28T01:32:03;14.80;;;7.97;;
21352;SDS011;10834;52.268;6.770;2023-05-28T01:34:49;14.37;;;7.93;;
21352;SDS011;10834;52.268;6.770;2023-05-28T01:37:45;17.07;;;8.87;;
21352;SDS011;10834;52.268;6.770;2023-05-28T01:40:33;15.03;;;8.27;;
21352;SDS011;10834;52.268;6.770;2023-05-28T01:43:21;19.53;;;8.37;;
21352;SDS011;10834;52.268;6.770;2023-05-28T01:46:08;21.03;;;8.40;;
21352;SDS011;10834;52.268;6.770;2023-05-28T01:48:55;16.70;;;8.10;;
21352;SDS011;10834;52.268;6.770;2023-05-28T01:51:41;19.07;;;9.70;;
21352;SDS011;10834;52.268;6.770;2023-05-28T01:54:27;15.23;;;8.33;;
21352;SDS011;10834;52.268;6.770;2023-05-28T01:57:13;15.57;;;8.83;;
21352;SDS011;10834;52.268;6.770;2023-05-28T02:00:00;17.40;;;8.30;;
21352;SDS011;10834;52.268;6.770;2023-05-28T02:02:46;18.53;;;7.83;;
21352;SDS011;10834;52.268;6.770;2023-05-28T02:05:33;20.13;;;9.07;;
21352;SDS011;10834;52.268;6.770;2023-05-28T02:08:19;19.87;;;8.17;;
21352;SDS011;10834;52.268;6.770;2023-05-28T02:11:05;20.73;;;8.67;;
21352;SDS011;10834;52.268;6.770;2023-05-28T02:13:51;18.50;;;8.30;;
21352;SDS011;10834;52.268;6.770;2023-05-28T02:16:38;19.37;;;8.40;;
21352;SDS011;10834;52.268;6.770;2023-05-28T02:19:24;19.83;;;9.47;;
21352;SDS011;10834;52.268;6.770;2023-05-28T02:22:10;20.03;;;9.47;;
21352;SDS011;10834;52.268;6.770;2023-05-28T02:24:57;22.40;;;9.40;;
21352;SDS011;10834;52.268;6.770;2023-05-28T02:27:43;16.20;;;7.97;;
21352;SDS011;10834;52.268;6.770;2023-05-28T02:30:29;19.37;;;9.33;;
21352;SDS011;10834;52.268;6.770;2023-05-28T02:33:15;20.73;;;9.43;;
21352;SDS011;10834;52.268;6.770;2023-05-28T02:36:01;23.60;;;9.23;;
21352;SDS011;10834;52.268;6.770;2023-05-28T02:38:48;17.30;;;8.73;;
21352;SDS011;10834;52.268;6.770;2023-05-28T02:41:35;20.50;;;8.80;;
21352;SDS011;10834;52.268;6.770;2023-05-28T02:44:21;17.77;;;9.17;;
21352;SDS011;10834;52.268;6.770;2023-05-28T02:47:07;20.60;;;9.23;;
21352;SDS011;10834;52.268;6.770;2023-05-28T02:49:53;24.10;;;8.97;;
21352;SDS011;10834;52.268;6.770;2023-05-28T02:52:39;19.07;;;9.13;;
21352;SDS011;10834;52.268;6.770;2023-05-28T02:55:25;15.63;;;8.57;;
21352;SDS011;10834;52.268;6.770;2023-05-28T02:58:11;16.40;;;8.90;;
21352;SDS011;10834;52.268;6.770;2023-05-28T03:00:58;22.30;;;9.50;;
21352;SDS011;10834;52.268;6.770;2023-05-28T03:03:44;32.13;;;9.30;;
21352;SDS011;10834;52.268;6.770;2023-05-28T03:06:30;16.57;;;9.37;;
21352;SDS011;10834;52.268;6.770;2023-05-28T03:09:18;19.07;;;9.40;;
21352;SDS011;10834;52.268;6.770;2023-05-28T03:12:04;18.60;;;9.30;;
21352;SDS011;10834;52.268;6.770;2023-05-28T03:14:51;19.87;;;9.60;;
21352;SDS011;10834;52.268;6.770;2023-05-28T03:17:37;17.60;;;9.50;;
21352;SDS011;10834;52.268;6.770;2023-05-28T03:20:23;21.57;;;9.73;;
21352;SDS011;10834;52.268;6.770;2023-05-28T03:23:09;19.20;;;8.93;;
21352;SDS011;10834;52.268;6.770;2023-05-28T03:25:55;19.20;;;8.80;;
21352;SDS011;10834;52.268;6.770;2023-05-28T03:28:41;16.60;;;8.67;;
21352;SDS011;10834;52.268;6.770;2023-05-28T03:31:28;16.13;;;8.57;;
21352;SDS011;10834;52.268;6.770;2023-05-28T03:34:17;18.30;;;10.67;;
21352;SDS011;10834;52.268;6.770;2023-05-28T03:37:03;21.60;;;9.77;;
21352;SDS011;10834;52.268;6.770;2023-05-28T03:39:51;25.00;;;9.00;;
21352;SDS011;10834;52.268;6.770;2023-05-28T03:42:38;15.73;;;8.37;;
21352;SDS011;10834;52.268;6.770;2023-05-28T03:45:24;21.90;;;9.73;;
21352;SDS011;10834;52.268;6.770;2023-05-28T03:48:10;17.27;;;8.67;;
21352;SDS011;10834;52.268;6.770;2023-05-28T03:50:56;20.17;;;9.67;;
21352;SDS011;10834;52.268;6.770;2023-05-28T03:53:43;22.60;;;9.30;;
21352;SDS011;10834;52.268;6.770;2023-05-28T03:56:29;19.70;;;9.00;;
21352;SDS011;10834;52.268;6.770;2023-05-28T03:59:16;23.97;;;9.70;;
21352;SDS011;10834;52.268;6.770;2023-05-28T04:02:02;16.93;;;9.23;;
21352;SDS011;10834;52.268;6.770;2023-05-28T04:04:48;15.87;;;8.67;;
21352;SDS011;10834;52.268;6.770;2023-05-28T04:07:34;23.03;;;9.83;;
21352;SDS011;10834;52.268;6.770;2023-05-28T04:10:20;20.40;;;9.73;;
21352;SDS011;10834;52.268;6.770;2023-05-28T04:13:06;21.77;;;9.87;;
21352;SDS011;10834;52.268;6.770;2023-05-28T04:15:53;26.67;;;9.17;;
21352;SDS011;10834;52.268;6.770;2023-05-28T04:18:39;19.23;;;9.60;;
21352;SDS011;10834;52.268;6.770;2023-05-28T04:21:25;25.00;;;9.17;;
21352;SDS011;10834;52.268;6.770;2023-05-28T04:24:11;23.23;;;10.13;;
21352;SDS011;10834;52.268;6.770;2023-05-28T04:26:57;17.00;;;9.97;;
21352;SDS011;10834;52.268;6.770;2023-05-28T04:29:44;22.30;;;10.00;;
21352;SDS011;10834;52.268;6.770;2023-05-28T04:32:30;28.17;;;9.47;;
21352;SDS011;10834;52.268;6.770;2023-05-28T04:35:17;21.77;;;9.10;;
21352;SDS011;10834;52.268;6.770;2023-05-28T04:38:04;22.00;;;9.07;;
21352;SDS011;10834;52.268;6.770;2023-05-28T04:40:50;21.87;;;9.73;;
21352;SDS011;10834;52.268;6.770;2023-05-28T04:43:36;17.30;;;10.63;;
21352;SDS011;10834;52.268;6.770;2023-05-28T04:46:22;20.67;;;9.63;;
21352;SDS011;10834;52.268;6.770;2023-05-28T04:49:11;18.73;;;9.37;;
21352;SDS011;10834;52.268;6.770;2023-05-28T04:52:00;25.50;;;9.53;;
21352;SDS011;10834;52.268;6.770;2023-05-28T04:54:46;17.53;;;9.20;;
21352;SDS011;10834;52.268;6.770;2023-05-28T04:57:32;18.03;;;10.57;;
21352;SDS011;10834;52.268;6.770;2023-05-28T05:00:18;20.43;;;9.40;;
21352;SDS011;10834;52.268;6.770;2023-05-28T05:03:05;18.17;;;9.40;;
21352;SDS011;10834;52.268;6.770;2023-05-28T05:05:52;19.83;;;9.23;;
21352;SDS011;10834;52.268;6.770;2023-05-28T05:08:38;20.50;;;9.60;;
21352;SDS011;10834;52.268;6.770;2023-05-28T05:11:24;18.27;;;8.27;;
21352;SDS011;10834;52.268;6.770;2023-05-28T05:14:11;15.67;;;9.07;;
21352;SDS011;10834;52.268;6.770;2023-05-28T05:16:57;23.87;;;9.57;;
21352;SDS011;10834;52.268;6.770;2023-05-28T05:19:43;19.43;;;11.20;;
21352;SDS011;10834;52.268;6.770;2023-05-28T05:22:30;24.40;;;9.63;;
21352;SDS011;10834;52.268;6.770;2023-05-28T05:25:16;18.87;;;8.67;;
21352;SDS011;10834;52.268;6.770;2023-05-28T05:28:02;17.60;;;8.80;;
21352;SDS011;10834;52.268;6.770;2023-05-28T05:30:49;15.00;;;8.20;;
21352;SDS011;10834;52.268;6.770;2023-05-28T05:33:35;14.70;;;7.87;;
21352;SDS011;10834;52.268;6.770;2023-05-28T05:36:21;18.93;;;8.17;;
21352;SDS011;10834;52.268;6.770;2023-05-28T05:39:07;18.87;;;8.53;;
21352;SDS011;10834;52.268;6.770;2023-05-28T05:41:54;16.20;;;8.40;;
21352;SDS011;10834;52.268;6.770;2023-05-28T05:44:40;19.70;;;8.30;;
21352;SDS011;10834;52.268;6.770;2023-05-28T05:47:26;19.83;;;9.43;;
21352;SDS011;10834;52.268;6.770;2023-05-28T05:50:12;16.97;;;7.93;;
21352;SDS011;10834;52.268;6.770;2023-05-28T05:52:58;17.20;;;8.67;;
21352;SDS011;10834;52.268;6.770;2023-05-28T05:55:46;19.27;;;8.60;;
21352;SDS011;10834;52.268;6.770;2023-05-28T05:58:33;15.63;;;8.57;;
21352;SDS011;10834;52.268;6.770;2023-05-28T06:01:20;17.10;;;8.50;;
21352;SDS011;10834;52.268;6.770;2023-05-28T06:04:06;17.57;;;7.93;;
21352;SDS011;10834;52.268;6.770;2023-05-28T06:06:52;13.70;;;8.25;;
21352;SDS011;10834;52.268;6.770;2023-05-28T06:09:38;16.70;;;7.60;;
21352;SDS011;10834;52.268;6.770;2023-05-28T06:12:24;13.88;;;7.97;;
21352;SDS011;10834;52.268;6.770;2023-05-28T06:15:10;15.48;;;7.93;;
21352;SDS011;10834;52.268;6.770;2023-05-28T06:17:57;15.65;;;7.78;;
21352;SDS011;10834;52.268;6.770;2023-05-28T06:20:43;12.07;;;8.57;;
21352;SDS011;10834;52.268;6.770;2023-05-28T06:23:30;13.95;;;7.97;;
21352;SDS011;10834;52.268;6.770;2023-05-28T06:26:17;18.85;;;7.40;;
21352;SDS011;10834;52.268;6.770;2023-05-28T06:29:03;21.20;;;7.78;;
21352;SDS011;10834;52.268;6.770;2023-05-28T06:31:51;14.73;;;7.78;;
21352;SDS011;10834;52.268;6.770;2023-05-28T06:34:37;16.02;;;7.57;;
21352;SDS011;10834;52.268;6.770;2023-05-28T06:37:23;18.42;;;8.30;;
21352;SDS011;10834;52.268;6.770;2023-05-28T06:40:09;12.85;;;8.27;;
21352;SDS011;10834;52.268;6.770;2023-05-28T06:42:55;14.02;;;7.70;;
21352;SDS011;10834;52.268;6.770;2023-05-28T06:45:41;17.20;;;8.38;;
21352;SDS011;10834;52.268;6.770;2023-05-28T06:48:27;17.02;;;8.23;;
21352;SDS011;10834;52.268;6.770;2023-05-28T06:51:14;21.70;;;8.52;;
21352;SDS011;10834;52.268;6.770;2023-05-28T06:54:00;19.67;;;8.77;;
21352;SDS011;10834;52.268;6.770;2023-05-28T06:56:46;17.55;;;8.73;;
21352;SDS011;10834;52.268;6.770;2023-05-28T06:59:32;16.63;;;8.07;;
21352;SDS011;10834;52.268;6.770;2023-05-28T07:02:18;16.27;;;7.97;;
21352;SDS011;10834;52.268;6.770;2023-05-28T07:05:04;14.52;;;8.25;;
21352;SDS011;10834;52.268;6.770;2023-05-28T07:07:51;17.25;;;8.38;;
21352;SDS011;10834;52.268;6.770;2023-05-28T07:10:37;18.00;;;7.47;;
21352;SDS011;10834;52.268;6.770;2023-05-28T07:13:23;15.48;;;8.32;;
21352;SDS011;10834;52.268;6.770;2023-05-28T07:16:09;14.00;;;7.65;;
21352;SDS011;10834;52.268;6.770;2023-05-28T07:18:55;14.63;;;8.50;;
21352;SDS011;10834;52.268;6.770;2023-05-28T07:21:41;18.67;;;8.55;;
21352;SDS011;10834;52.268;6.770;2023-05-28T07:24:27;11.00;;;8.07;;
21352;SDS011;10834;52.268;6.770;2023-05-28T07:27:13;17.40;;;8.65;;
21352;SDS011;10834;52.268;6.770;2023-05-28T07:29:59;12.52;;;8.20;;
21352;SDS011;10834;52.268;6.770;2023-05-28T07:32:45;15.45;;;9.07;;
21352;SDS011;10834;52.268;6.770;2023-05-28T07:35:31;12.75;;;8.43;;
21352;SDS011;10834;52.268;6.770;2023-05-28T07:38:17;11.40;;;8.77;;
21352;SDS011;10834;52.268;6.770;2023-05-28T07:41:03;15.43;;;8.90;;
21352;SDS011;10834;52.268;6.770;2023-05-28T07:43:49;12.45;;;9.02;;
21352;SDS011;10834;52.268;6.770;2023-05-28T07:46:36;11.05;;;7.97;;
21352;SDS011;10834;52.268;6.770;2023-05-28T07:49:22;15.20;;;8.60;;
21352;SDS011;10834;52.268;6.770;2023-05-28T07:52:08;15.77;;;9.20;;
21352;SDS011;10834;52.268;6.770;2023-05-28T07:54:57;13.38;;;8.30;;
21352;SDS011;10834;52.268;6.770;2023-05-28T07:57:44;12.05;;;8.95;;
21352;SDS011;10834;52.268;6.770;2023-05-28T08:00:30;14.55;;;9.00;;
21352;SDS011;10834;52.268;6.770;2023-05-28T08:03:16;14.23;;;9.77;;
21352;SDS011;10834;52.268;6.770;2023-05-28T08:06:02;13.02;;;8.27;;
21352;SDS011;10834;52.268;6.770;2023-05-28T08:08:49;12.43;;;8.45;;
21352;SDS011;10834;52.268;6.770;2023-05-28T08:11:35;13.88;;;8.80;;
21352;SDS011;10834;52.268;6.770;2023-05-28T08:14:21;15.25;;;8.38;;
21352;SDS011;10834;52.268;6.770;2023-05-28T08:17:07;15.27;;;9.07;;
21352;SDS011;10834;52.268;6.770;2023-05-28T08:19:53;14.68;;;8.73;;
21352;SDS011;10834;52.268;6.770;2023-05-28T08:22:39;12.43;;;7.72;;
21352;SDS011;10834;52.268;6.770;2023-05-28T08:25:26;12.18;;;8.20;;
21352;SDS011;10834;52.268;6.770;2023-05-28T08:28:12;12.95;;;7.68;;
21352;SDS011;10834;52.268;6.770;2023-05-28T08:30:59;12.63;;;8.27;;
21352;SDS011;10834;52.268;6.770;2023-05-28T08:33:45;12.32;;;8.85;;
21352;SDS011;10834;52.268;6.770;2023-05-28T08:36:31;12.65;;;8.45;;
21352;SDS011;10834;52.268;6.770;2023-05-28T08:39:17;12.02;;;8.45;;
21352;SDS011;10834;52.268;6.770;2023-05-28T08:42:03;10.13;;;8.27;;
21352;SDS011;10834;52.268;6.770;2023-05-28T08:44:49;12.95;;;8.52;;
21352;SDS011;10834;52.268;6.770;2023-05-28T08:47:36;11.05;;;7.97;;
21352;SDS011;10834;52.268;6.770;2023-05-28T08:50:23;12.00;;;7.90;;
21352;SDS011;10834;52.268;6.770;2023-05-28T08:53:10;13.52;;;8.02;;
21352;SDS011;10834;52.268;6.770;2023-05-28T08:56:01;10.80;;;6.63;;
21352;SDS011;10834;52.268;6.770;2023-05-28T08:58:48;14.57;;;7.93;;
21352;SDS011;10834;52.268;6.770;2023-05-28T09:01:36;9.32;;;7.88;;
21352;SDS011;10834;52.268;6.770;2023-05-28T09:04:23;14.43;;;8.25;;
21352;SDS011;10834;52.268;6.770;2023-05-28T09:07:09;9.77;;;7.38;;
21352;SDS011;10834;52.268;6.770;2023-05-28T09:09:56;12.82;;;8.82;;
21352;SDS011;10834;52.268;6.770;2023-05-28T09:13:01;11.77;;;7.20;;
21352;SDS011;10834;52.268;6.770;2023-05-28T09:15:50;11.15;;;7.65;;
21352;SDS011;10834;52.268;6.770;2023-05-28T09:18:37;12.75;;;7.35;;
21352;SDS011;10834;52.268;6.770;2023-05-28T09:21:23;12.85;;;7.97;;
21352;SDS011;10834;52.268;6.770;2023-05-28T09:24:09;11.55;;;7.43;;
21352;SDS011;10834;52.268;6.770;2023-05-28T09:26:56;12.18;;;7.13;;
21352;SDS011;10834;52.268;6.770;2023-05-28T09:29:43;11.05;;;7.22;;
21352;SDS011;10834;52.268;6.770;2023-05-28T09:32:29;7.57;;;6.55;;
21352;SDS011;10834;52.268;6.770;2023-05-28T09:35:16;10.90;;;7.07;;
21352;SDS011;10834;52.268;6.770;2023-05-28T09:38:11;13.93;;;6.78;;
21352;SDS011;10834;52.268;6.770;2023-05-28T09:40:57;9.50;;;6.82;;
21352;SDS011;10834;52.268;6.770;2023-05-28T09:43:43;14.00;;;6.50;;
21352;SDS011;10834;52.268;6.770;2023-05-28T09:46:33;11.18;;;6.20;;
21352;SDS011;10834;52.268;6.770;2023-05-28T09:49:20;9.50;;;5.75;;
21352;SDS011;10834;52.268;6.770;2023-05-28T09:52:06;9.50;;;6.53;;
21352;SDS011;10834;52.268;6.770;2023-05-28T09:54:57;9.65;;;5.80;;
21352;SDS011;10834;52.268;6.770;2023-05-28T10:00:48;10.70;;;5.75;;
21352;SDS011;10834;52.268;6.770;2023-05-28T10:03:38;8.43;;;5.50;;
21352;SDS011;10834;52.268;6.770;2023-05-28T10:06:29;8.85;;;5.53;;
21352;SDS011;10834;52.268;6.770;2023-05-28T10:09:17;7.38;;;5.03;;
21352;SDS011;10834;52.268;6.770;2023-05-28T10:12:12;9.25;;;5.32;;
21352;SDS011;10834;52.268;6.770;2023-05-28T10:15:02;9.70;;;5.47;;
21352;SDS011;10834;52.268;6.770;2023-05-28T10:17:49;10.00;;;5.82;;
21352;SDS011;10834;52.268;6.770;2023-05-28T10:20:36;10.23;;;5.90;;
21352;SDS011;10834;52.268;6.770;2023-05-28T10:23:22;10.68;;;5.72;;
21352;SDS011;10834;52.268;6.770;2023-05-28T10:26:09;9.90;;;5.90;;
21352;SDS011;10834;52.268;6.770;2023-05-28T10:28:56;10.57;;;5.70;;
21352;SDS011;10834;52.268;6.770;2023-05-28T10:31:42;9.30;;;5.18;;
21352;SDS011;10834;52.268;6.770;2023-05-28T10:34:29;8.05;;;4.82;;
21352;SDS011;10834;52.268;6.770;2023-05-28T10:37:22;9.38;;;5.07;;
21352;SDS011;10834;52.268;6.770;2023-05-28T10:40:08;7.63;;;5.32;;
21352;SDS011;10834;52.268;6.770;2023-05-28T10:42:55;7.65;;;5.07;;
21352;SDS011;10834;52.268;6.770;2023-05-28T10:45:41;9.35;;;5.38;;
21352;SDS011;10834;52.268;6.770;2023-05-28T10:48:29;10.52;;;4.85;;
21352;SDS011;10834;52.268;6.770;2023-05-28T10:51:16;8.90;;;4.50;;
21352;SDS011;10834;52.268;6.770;2023-05-28T10:54:12;12.32;;;5.97;;
21352;SDS011;10834;52.268;6.770;2023-05-28T10:57:11;9.63;;;4.47;;
21352;SDS011;10834;52.268;6.770;2023-05-28T11:00:01;12.32;;;5.53;;
21352;SDS011;10834;52.268;6.770;2023-05-28T11:02:53;9.50;;;5.45;;
21352;SDS011;10834;52.268;6.770;2023-05-28T11:05:40;9.15;;;4.57;;
21352;SDS011;10834;52.268;6.770;2023-05-28T11:08:26;8.93;;;4.70;;
21352;SDS011;10834;52.268;6.770;2023-05-28T11:11:13;12.00;;;5.18;;
21352;SDS011;10834;52.268;6.770;2023-05-28T11:14:00;9.60;;;4.97;;
21352;SDS011;10834;52.268;6.770;2023-05-28T11:16:46;8.18;;;4.75;;
21352;SDS011;10834;52.268;6.770;2023-05-28T11:19:38;8.02;;;4.05;;
21352;SDS011;10834;52.268;6.770;2023-05-28T11:22:37;7.75;;;5.03;;
21352;SDS011;10834;52.268;6.770;2023-05-28T11:25:23;9.75;;;5.13;;
21352;SDS011;10834;52.268;6.770;2023-05-28T11:28:12;9.32;;;5.00;;
21352;SDS011;10834;52.268;6.770;2023-05-28T11:30:58;11.50;;;4.35;;
21352;SDS011;10834;52.268;6.770;2023-05-28T11:33:48;12.23;;;5.28;;
21352;SDS011;10834;52.268;6.770;2023-05-28T11:36:41;9.60;;;4.40;;
21352;SDS011;10834;52.268;6.770;2023-05-28T11:39:28;7.22;;;4.40;;
21352;SDS011;10834;52.268;6.770;2023-05-28T11:42:14;7.30;;;4.72;;
21352;SDS011;10834;52.268;6.770;2023-05-28T11:45:01;10.23;;;5.32;;
21352;SDS011;10834;52.268;6.770;2023-05-28T11:47:47;7.10;;;4.38;;
21352;SDS011;10834;52.268;6.770;2023-05-28T11:50:34;6.07;;;4.18;;
21352;SDS011;10834;52.268;6.770;2023-05-28T11:53:20;6.88;;;4.40;;
21352;SDS011;10834;52.268;6.770;2023-05-28T11:56:06;9.23;;;4.80;;
21352;SDS011;10834;52.268;6.770;2023-05-28T11:58:53;6.13;;;4.88;;
21352;SDS011;10834;52.268;6.770;2023-05-28T12:01:40;7.75;;;4.13;;
21352;SDS011;10834;52.268;6.770;2023-05-28T12:04:26;8.02;;;4.38;;
21352;SDS011;10834;52.268;6.770;2023-05-28T12:07:12;8.75;;;4.63;;
21352;SDS011;10834;52.268;6.770;2023-05-28T12:10:02;8.80;;;4.65;;
21352;SDS011;10834;52.268;6.770;2023-05-28T12:12:55;9.10;;;4.80;;
21352;SDS011;10834;52.268;6.770;2023-05-28T12:15:41;9.43;;;4.45;;
21352;SDS011;10834;52.268;6.770;2023-05-28T12:18:28;8.05;;;4.43;;
21352;SDS011;10834;52.268;6.770;2023-05-28T12:21:14;7.18;;;4.70;;
21352;SDS011;10834;52.268;6.770;2023-05-28T12:24:14;9.55;;;4.57;;
21352;SDS011;10834;52.268;6.770;2023-05-28T12:27:01;8.07;;;4.18;;
21352;SDS011;10834;52.268;6.770;2023-05-28T12:29:47;8.55;;;4.57;;
21352;SDS011;10834;52.268;6.770;2023-05-28T12:32:36;7.47;;;5.00;;
21352;SDS011;10834;52.268;6.770;2023-05-28T12:35:22;10.10;;;4.70;;
21352;SDS011;10834;52.268;6.770;2023-05-28T12:38:08;8.65;;;4.63;;
21352;SDS011;10834;52.268;6.770;2023-05-28T12:40:54;8.93;;;4.90;;
21352;SDS011;10834;52.268;6.770;2023-05-28T12:43:40;7.85;;;4.78;;
21352;SDS011;10834;52.268;6.770;2023-05-28T12:46:26;9.63;;;4.80;;
21352;SDS011;10834;52.268;6.770;2023-05-28T12:49:12;12.00;;;5.47;;
21352;SDS011;10834;52.268;6.770;2023-05-28T12:51:59;7.30;;;3.85;;
21352;SDS011;10834;52.268;6.770;2023-05-28T12:54:45;8.50;;;4.55;;
21352;SDS011;10834;52.268;6.770;2023-05-28T12:57:31;7.53;;;4.22;;
21352;SDS011;10834;52.268;6.770;2023-05-28T13:00:17;9.00;;;4.40;;
21352;SDS011;10834;52.268;6.770;2023-05-28T13:03:03;7.50;;;4.65;;
21352;SDS011;10834;52.268;6.770;2023-05-28T13:05:51;9.18;;;4.65;;
21352;SDS011;10834;52.268;6.770;2023-05-28T13:08:37;12.43;;;4.40;;
21352;SDS011;10834;52.268;6.770;2023-05-28T13:11:24;8.40;;;4.70;;
21352;SDS011;10834;52.268;6.770;2023-05-28T13:14:10;10.00;;;4.63;;
21352;SDS011;10834;52.268;6.770;2023-05-28T13:16:56;8.23;;;4.40;;
21352;SDS011;10834;52.268;6.770;2023-05-28T13:19:43;12.93;;;4.93;;
21352;SDS011;10834;52.268;6.770;2023-05-28T13:22:29;8.40;;;4.47;;
21352;SDS011;10834;52.268;6.770;2023-05-28T13:25:16;7.57;;;4.93;;
21352;SDS011;10834;52.268;6.770;2023-05-28T13:28:02;10.45;;;4.70;;
21352;SDS011;10834;52.268;6.770;2023-05-28T13:30:49;10.45;;;4.40;;
21352;SDS011;10834;52.268;6.770;2023-05-28T13:33:36;9.77;;;5.80;;
21352;SDS011;10834;52.268;6.770;2023-05-28T13:36:23;9.68;;;5.30;;
21352;SDS011;10834;52.268;6.770;2023-05-28T13:39:09;9.55;;;4.50;;
21352;SDS011;10834;52.268;6.770;2023-05-28T13:41:56;8.73;;;5.03;;
21352;SDS011;10834;52.268;6.770;2023-05-28T13:44:42;9.13;;;4.97;;
21352;SDS011;10834;52.268;6.770;2023-05-28T13:47:28;10.30;;;5.15;;
21352;SDS011;10834;52.268;6.770;2023-05-28T13:50:15;6.53;;;4.55;;
21352;SDS011;10834;52.268;6.770;2023-05-28T13:53:01;9.60;;;5.05;;
21352;SDS011;10834;52.268;6.770;2023-05-28T13:55:47;9.50;;;4.60;;
21352;SDS011;10834;52.268;6.770;2023-05-28T13:58:33;7.88;;;4.38;;
21352;SDS011;10834;52.268;6.770;2023-05-28T14:01:19;8.05;;;5.43;;
21352;SDS011;10834;52.268;6.770;2023-05-28T14:04:06;10.93;;;4.88;;
21352;SDS011;10834;52.268;6.770;2023-05-28T14:06:52;9.32;;;4.65;;
21352;SDS011;10834;52.268;6.770;2023-05-28T14:09:38;9.65;;;5.18;;
21352;SDS011;10834;52.268;6.770;2023-05-28T14:12:24;9.60;;;5.15;;
21352;SDS011;10834;52.268;6.770;2023-05-28T14:15:10;9.93;;;5.57;;
21352;SDS011;10834;52.268;6.770;2023-05-28T14:17:57;8.95;;;6.10;;
21352;SDS011;10834;52.268;6.770;2023-05-28T14:20:43;7.10;;;4.47;;
21352;SDS011;10834;52.268;6.770;2023-05-28T14:23:29;9.25;;;4.40;;
21352;SDS011;10834;52.268;6.770;2023-05-28T14:26:15;14.07;;;6.13;;
21352;SDS011;10834;52.268;6.770;2023-05-28T14:29:01;9.85;;;5.55;;
21352;SDS011;10834;52.268;6.770;2023-05-28T14:31:48;6.65;;;5.10;;
21352;SDS011;10834;52.268;6.770;2023-05-28T14:34:34;9.43;;;5.43;;
21352;SDS011;10834;52.268;6.770;2023-05-28T14:37:20;6.78;;;4.88;;
21352;SDS011;10834;52.268;6.770;2023-05-28T14:40:06;11.07;;;5.50;;
21352;SDS011;10834;52.268;6.770;2023-05-28T14:42:53;8.40;;;5.10;;
21352;SDS011;10834;52.268;6.770;2023-05-28T14:45:39;13.82;;;6.85;;
21352;SDS011;10834;52.268;6.770;2023-05-28T14:48:25;10.77;;;5.05;;
21352;SDS011;10834;52.268;6.770;2023-05-28T14:51:11;9.32;;;5.82;;
21352;SDS011;10834;52.268;6.770;2023-05-28T14:53:57;10.85;;;5.90;;
21352;SDS011;10834;52.268;6.770;2023-05-28T14:56:43;8.50;;;5.15;;
21352;SDS011;10834;52.268;6.770;2023-05-28T14:59:29;10.80;;;5.40;;
21352;SDS011;10834;52.268;6.770;2023-05-28T15:02:16;9.63;;;5.40;;
21352;SDS011;10834;52.268;6.770;2023-05-28T15:05:02;6.20;;;5.05;;
21352;SDS011;10834;52.268;6.770;2023-05-28T15:07:49;9.85;;;5.15;;
21352;SDS011;10834;52.268;6.770;2023-05-28T15:10:35;7.10;;;4.75;;
21352;SDS011;10834;52.268;6.770;2023-05-28T15:13:21;11.38;;;5.45;;
21352;SDS011;10834;52.268;6.770;2023-05-28T15:16:07;10.65;;;5.45;;
21352;SDS011;10834;52.268;6.770;2023-05-28T15:18:53;8.98;;;5.43;;
21352;SDS011;10834;52.268;6.770;2023-05-28T15:21:39;10.50;;;5.43;;
21352;SDS011;10834;52.268;6.770;2023-05-28T15:24:25;8.98;;;6.07;;
21352;SDS011;10834;52.268;6.770;2023-05-28T15:27:12;14.15;;;5.60;;
21352;SDS011;10834;52.268;6.770;2023-05-28T15:29:58;9.13;;;5.55;;
21352;SDS011;10834;52.268;6.770;2023-05-28T15:32:44;12.00;;;5.38;;
21352;SDS011;10834;52.268;6.770;2023-05-28T15:35:32;11.50;;;4.88;;
21352;SDS011;10834;52.268;6.770;2023-05-28T15:38:19;14.90;;;6.55;;
21352;SDS011;10834;52.268;6.770;2023-05-28T15:41:05;11.60;;;4.82;;
21352;SDS011;10834;52.268;6.770;2023-05-28T15:43:51;15.00;;;6.43;;
21352;SDS011;10834;52.268;6.770;2023-05-28T15:46:38;10.77;;;5.47;;
21352;SDS011;10834;52.268;6.770;2023-05-28T15:49:25;11.52;;;5.43;;
21352;SDS011;10834;52.268;6.770;2023-05-28T15:52:11;12.57;;;5.85;;
21352;SDS011;10834;52.268;6.770;2023-05-28T15:54:57;14.00;;;5.28;;
21352;SDS011;10834;52.268;6.770;2023-05-28T15:57:43;8.15;;;4.47;;
21352;SDS011;10834;52.268;6.770;2023-05-28T16:00:29;17.27;;;7.00;;
21352;SDS011;10834;52.268;6.770;2023-05-28T16:03:15;21.45;;;5.93;;
21352;SDS011;10834;52.268;6.770;2023-05-28T16:06:04;13.15;;;6.20;;
21352;SDS011;10834;52.268;6.770;2023-05-28T16:08:51;12.43;;;5.28;;
21352;SDS011;10834;52.268;6.770;2023-05-28T16:11:37;24.23;;;5.80;;
21352;SDS011;10834;52.268;6.770;2023-05-28T16:14:29;15.93;;;4.93;;
21352;SDS011;10834;52.268;6.770;2023-05-28T16:17:18;8.10;;;5.03;;
21352;SDS011;10834;52.268;6.770;2023-05-28T16:20:07;8.10;;;4.65;;
21352;SDS011;10834;52.268;6.770;2023-05-28T16:22:56;4.63;;;4.00;;
21352;SDS011;10834;52.268;6.770;2023-05-28T16:25:43;17.55;;;4.85;;
21352;SDS011;10834;52.268;6.770;2023-05-28T16:28:30;10.38;;;4.47;;
21352;SDS011;10834;52.268;6.770;2023-05-28T16:31:18;17.05;;;5.40;;
21352;SDS011;10834;52.268;6.770;2023-05-28T16:34:04;4.88;;;3.25;;
21352;SDS011;10834;52.268;6.770;2023-05-28T16:36:51;9.07;;;4.13;;